sensor_id;sensor_type;location;lat;lon;timestamp;pressure;altitude;pressure_sealevel;temperature;humidity
70952;BME280;69214;55.880;37.542;2024-01-15T00:00:44;96757.09;;;-8.42;81.08
70952;BME280;69214;55.880;37.542;2024-01-15T00:03:10;96755.09;;;-8.40;81.35
70952;BME280;69214;55.880;37.542;2024-01-15T00:05:36;96754.38;;;-8.34;81.49
70952;BME280;69214;55.880;37.542;2024-01-15T00:08:02;96742.78;;;-8.33;81.37
70952;BME280;69214;55.880;37.542;2024-01-15T00:10:29;96749.16;;;-8.28;81.42
70952;BME280;69214;55.880;37.542;2024-01-15T00:12:54;96753.72;;;-8.22;81.45
70952;BME280;69214;55.880;37.542;2024-01-15T00:15:20;96746.25;;;-8.18;81.50
70952;BME280;69214;55.880;37.542;2024-01-15T00:17:46;96749.97;;;-8.12;81.42
70952;BME280;69214;55.880;37.542;2024-01-15T00:20:12;96735.13;;;-8.13;81.11
70952;BME280;69214;55.880;37.542;2024-01-15T00:22:39;96733.84;;;-8.18;81.34
70952;BME280;69214;55.880;37.542;2024-01-15T00:25:05;96732.84;;;-8.17;81.29
70952;BME280;69214;55.880;37.542;2024-01-15T00:27:31;96737.59;;;-8.12;81.33
70952;BME280;69214;55.880;37.542;2024-01-15T00:29:57;96734.75;;;-8.10;81.42
70952;BME280;69214;55.880;37.542;2024-01-15T00:32:23;96733.75;;;-8.09;81.00
70952;BME280;69214;55.880;37.542;2024-01-15T00:34:49;96731.94;;;-8.09;81.44
70952;BME280;69214;55.880;37.542;2024-01-15T00:37:16;96736.50;;;-8.03;81.50
70952;BME280;69214;55.880;37.542;2024-01-15T00:39:43;96736.94;;;-7.99;81.21
70952;BME280;69214;55.880;37.542;2024-01-15T00:42:10;96733.13;;;-7.97;81.42
70952;BME280;69214;55.880;37.542;2024-01-15T00:44:36;96718.88;;;-7.96;81.39
70952;BME280;69214;55.880;37.542;2024-01-15T00:47:02;96712.69;;;-8.03;81.83
70952;BME280;69214;55.880;37.542;2024-01-15T00:49:29;96718.25;;;-7.98;81.35
70952;BME280;69214;55.880;37.542;2024-01-15T00:51:54;96717.25;;;-7.97;81.62
70952;BME280;69214;55.880;37.542;2024-01-15T00:54:20;96718.59;;;-8.01;81.29
70952;BME280;69214;55.880;37.542;2024-01-15T00:56:46;96718.59;;;-8.01;81.29
70952;BME280;69214;55.880;37.542;2024-01-15T00:59:12;96716.50;;;-8.05;81.13
70952;BME280;69214;55.880;37.542;2024-01-15T01:01:41;96713.41;;;-8.09;81.64
70952;BME280;69214;55.880;37.542;2024-01-15T01:04:12;96709.50;;;-8.13;80.93
70952;BME280;69214;55.880;37.542;2024-01-15T01:06:38;96705.38;;;-8.16;81.14
70952;BME280;69214;55.880;37.542;2024-01-15T01:09:04;96697.44;;;-8.30;81.41
70952;BME280;69214;55.880;37.542;2024-01-15T01:11:30;96690.88;;;-8.20;81.30
70952;BME280;69214;55.880;37.542;2024-01-15T01:13:56;96690.53;;;-8.17;81.18
70952;BME280;69214;55.880;37.542;2024-01-15T01:16:22;96702.75;;;-8.16;81.31
70952;BME280;69214;55.880;37.542;2024-01-15T01:18:48;96694.63;;;-8.14;81.27
70952;BME280;69214;55.880;37.542;2024-01-15T01:21:14;96689.97;;;-8.12;81.21
70952;BME280;69214;55.880;37.542;2024-01-15T01:23:40;96689.78;;;-8.10;81.05
70952;BME280;69214;55.880;37.542;2024-01-15T01:26:06;96677.31;;;-8.17;81.26
70952;BME280;69214;55.880;37.542;2024-01-15T01:28:32;96689.41;;;-8.07;81.28
70952;BME280;69214;55.880;37.542;2024-01-15T01:30:59;96675.38;;;-8.08;81.19
70952;BME280;69214;55.880;37.542;2024-01-15T01:33:25;96670.44;;;-8.11;81.50
70952;BME280;69214;55.880;37.542;2024-01-15T01:35:51;96680.47;;;-8.06;81.31
70952;BME280;69214;55.880;37.542;2024-01-15T01:38:17;96680.31;;;-8.05;81.71
70952;BME280;69214;55.880;37.542;2024-01-15T01:40:43;96674.38;;;-8.07;81.37
70952;BME280;69214;55.880;37.542;2024-01-15T01:43:09;96668.72;;;-8.04;81.33
70952;BME280;69214;55.880;37.542;2024-01-15T01:45:36;96662.16;;;-8.08;81.23
70952;BME280;69214;55.880;37.542;2024-01-15T01:48:04;96672.44;;;-7.98;81.25
70952;BME280;69214;55.880;37.542;2024-01-15T01:50:31;96666.78;;;-7.95;81.58
70952;BME280;69214;55.880;37.542;2024-01-15T01:52:57;96664.41;;;-7.90;81.18
70952;BME280;69214;55.880;37.542;2024-01-15T01:55:26;96673.44;;;-7.85;81.36
70952;BME280;69214;55.880;37.542;2024-01-15T01:57:54;96655.00;;;-7.93;81.53
70952;BME280;69214;55.880;37.542;2024-01-15T02:00:20;96652.34;;;-7.78;81.38
70952;BME280;69214;55.880;37.542;2024-01-15T02:02:46;96665.84;;;-7.73;81.44
70952;BME280;69214;55.880;37.542;2024-01-15T02:05:14;96647.50;;;-7.74;81.50
70952;BME280;69214;55.880;37.542;2024-01-15T02:07:43;96652.03;;;-7.68;81.47
70952;BME280;69214;55.880;37.542;2024-01-15T02:10:11;96642.66;;;-7.71;81.24
70952;BME280;69214;55.880;37.542;2024-01-15T02:12:37;96663.34;;;-7.60;81.43
70952;BME280;69214;55.880;37.542;2024-01-15T02:15:03;96652.38;;;-7.57;81.47
70952;BME280;69214;55.880;37.542;2024-01-15T02:17:34;96663.41;;;-7.53;81.57
70952;BME280;69214;55.880;37.542;2024-01-15T02:20:00;96644.25;;;-7.55;81.39
70952;BME280;69214;55.880;37.542;2024-01-15T02:22:26;96661.44;;;-7.44;81.93
70952;BME280;69214;55.880;37.542;2024-01-15T02:24:52;96638.81;;;-7.47;81.73
70952;BME280;69214;55.880;37.542;2024-01-15T02:27:19;96660.06;;;-7.40;81.55
70952;BME280;69214;55.880;37.542;2024-01-15T02:29:46;96644.81;;;-7.38;81.47
70952;BME280;69214;55.880;37.542;2024-01-15T02:32:12;96644.88;;;-7.32;81.64
70952;BME280;69214;55.880;37.542;2024-01-15T02:34:38;96641.22;;;-7.31;81.72
70952;BME280;69214;55.880;37.542;2024-01-15T02:37:04;96643.63;;;-7.36;81.51
70952;BME280;69214;55.880;37.542;2024-01-15T02:39:29;96646.13;;;-7.28;81.52
70952;BME280;69214;55.880;37.542;2024-01-15T02:41:55;96644.13;;;-7.26;81.58
70952;BME280;69214;55.880;37.542;2024-01-15T02:44:23;96648.41;;;-7.25;81.57
70952;BME280;69214;55.880;37.542;2024-01-15T02:46:49;96643.94;;;-7.24;81.53
70952;BME280;69214;55.880;37.542;2024-01-15T02:49:15;96641.72;;;-7.21;81.71
70952;BME280;69214;55.880;37.542;2024-01-15T02:51:41;96648.28;;;-7.16;81.58
70952;BME280;69214;55.880;37.542;2024-01-15T02:54:07;96642.34;;;-7.19;81.36
70952;BME280;69214;55.880;37.542;2024-01-15T02:56:33;96647.91;;;-7.13;81.43
70952;BME280;69214;55.880;37.542;2024-01-15T02:59:00;96639.56;;;-7.10;81.45
70952;BME280;69214;55.880;37.542;2024-01-15T03:01:26;96647.75;;;-7.05;81.33
70952;BME280;69214;55.880;37.542;2024-01-15T03:03:52;96631.03;;;-7.06;81.47
70952;BME280;69214;55.880;37.542;2024-01-15T03:06:18;96647.81;;;-6.99;81.70
70952;BME280;69214;55.880;37.542;2024-01-15T03:08:43;96642.78;;;-6.94;81.49
70952;BME280;69214;55.880;37.542;2024-01-15T03:11:09;96640.56;;;-6.90;81.52
70952;BME280;69214;55.880;37.542;2024-01-15T03:13:36;96632.59;;;-6.90;81.65
70952;BME280;69214;55.880;37.542;2024-01-15T03:16:05;96630.19;;;-6.85;81.74
70952;BME280;69214;55.880;37.542;2024-01-15T03:18:31;96630.63;;;-6.81;81.75
70952;BME280;69214;55.880;37.542;2024-01-15T03:20:57;96626.78;;;-6.79;81.69
70952;BME280;69214;55.880;37.542;2024-01-15T03:23:23;96630.88;;;-6.76;81.56
70952;BME280;69214;55.880;37.542;2024-01-15T03:25:49;96623.34;;;-6.73;81.64
70952;BME280;69214;55.880;37.542;2024-01-15T03:28:15;96624.59;;;-6.69;81.71
70952;BME280;69214;55.880;37.542;2024-01-15T03:30:41;96615.63;;;-6.68;81.42
70952;BME280;69214;55.880;37.542;2024-01-15T03:33:07;96613.19;;;-6.69;81.60
70952;BME280;69214;55.880;37.542;2024-01-15T03:35:33;96618.53;;;-6.63;81.72
70952;BME280;69214;55.880;37.542;2024-01-15T03:37:58;96621.59;;;-6.59;81.36
70952;BME280;69214;55.880;37.542;2024-01-15T03:40:24;96611.44;;;-6.56;81.56
70952;BME280;69214;55.880;37.542;2024-01-15T03:42:50;96606.31;;;-6.57;81.33
70952;BME280;69214;55.880;37.542;2024-01-15T03:45:16;96605.75;;;-6.53;81.54
70952;BME280;69214;55.880;37.542;2024-01-15T03:47:43;96608.38;;;-6.53;81.87
70952;BME280;69214;55.880;37.542;2024-01-15T03:50:09;96608.63;;;-6.47;81.41
70952;BME280;69214;55.880;37.542;2024-01-15T03:52:35;96612.31;;;-6.42;81.26
70952;BME280;69214;55.880;37.542;2024-01-15T03:55:00;96586.97;;;-6.51;81.58
70952;BME280;69214;55.880;37.542;2024-01-15T03:57:26;96607.25;;;-6.37;81.58
70952;BME280;69214;55.880;37.542;2024-01-15T03:59:52;96605.22;;;-6.35;81.79
70952;BME280;69214;55.880;37.542;2024-01-15T04:02:18;96611.97;;;-6.32;81.78
70952;BME280;69214;55.880;37.542;2024-01-15T04:04:44;96598.09;;;-6.34;81.69
70952;BME280;69214;55.880;37.542;2024-01-15T04:07:10;96600.56;;;-6.26;81.62
70952;BME280;69214;55.880;37.542;2024-01-15T04:09:36;96598.53;;;-6.24;81.49
70952;BME280;69214;55.880;37.542;2024-01-15T04:12:02;96592.38;;;-6.31;81.64
70952;BME280;69214;55.880;37.542;2024-01-15T04:14:28;96597.94;;;-6.19;81.57
70952;BME280;69214;55.880;37.542;2024-01-15T04:16:54;96605.72;;;-6.18;81.55
70952;BME280;69214;55.880;37.542;2024-01-15T04:19:20;96593.47;;;-6.19;81.84
70952;BME280;69214;55.880;37.542;2024-01-15T04:21:46;96602.03;;;-6.17;81.73
70952;BME280;69214;55.880;37.542;2024-01-15T04:24:12;96594.94;;;-6.10;81.21
70952;BME280;69214;55.880;37.542;2024-01-15T04:26:37;96594.94;;;-6.10;81.56
70952;BME280;69214;55.880;37.542;2024-01-15T04:29:03;96594.72;;;-6.08;81.57
70952;BME280;69214;55.880;37.542;2024-01-15T04:31:29;96581.88;;;-6.05;81.38
70952;BME280;69214;55.880;37.542;2024-01-15T04:33:55;96591.25;;;-6.09;81.51
70952;BME280;69214;55.880;37.542;2024-01-15T04:36:21;96588.00;;;-6.04;81.41
70952;BME280;69214;55.880;37.542;2024-01-15T04:38:47;96587.63;;;-6.01;81.75
70952;BME280;69214;55.880;37.542;2024-01-15T04:41:13;96592.72;;;-6.00;81.56
70952;BME280;69214;55.880;37.542;2024-01-15T04:43:39;96591.72;;;-5.99;81.57
70952;BME280;69214;55.880;37.542;2024-01-15T04:46:06;96586.19;;;-5.97;81.43
70952;BME280;69214;55.880;37.542;2024-01-15T04:48:33;96591.13;;;-5.94;81.74
70952;BME280;69214;55.880;37.542;2024-01-15T04:51:00;96586.19;;;-5.97;81.58
70952;BME280;69214;55.880;37.542;2024-01-15T04:53:26;96594.59;;;-5.94;81.87
70952;BME280;69214;55.880;37.542;2024-01-15T04:55:52;96586.22;;;-5.91;81.83
70952;BME280;69214;55.880;37.542;2024-01-15T04:58:18;96550.22;;;-6.13;81.86
70952;BME280;69214;55.880;37.542;2024-01-15T05:00:45;96575.41;;;-5.89;81.88
70952;BME280;69214;55.880;37.542;2024-01-15T05:03:11;96583.56;;;-5.84;81.53
70952;BME280;69214;55.880;37.542;2024-01-15T05:05:37;96584.38;;;-5.83;81.75
70952;BME280;69214;55.880;37.542;2024-01-15T05:08:03;96573.97;;;-5.85;81.74
70952;BME280;69214;55.880;37.542;2024-01-15T05:10:29;96590.72;;;-5.84;81.68
70952;BME280;69214;55.880;37.542;2024-01-15T05:12:55;96568.66;;;-5.92;81.89
70952;BME280;69214;55.880;37.542;2024-01-15T05:15:21;96589.50;;;-5.82;81.61
70952;BME280;69214;55.880;37.542;2024-01-15T05:17:46;96585.81;;;-5.81;81.90
70952;BME280;69214;55.880;37.542;2024-01-15T05:20:12;96571.09;;;-5.83;81.64
70952;BME280;69214;55.880;37.542;2024-01-15T05:22:38;96585.41;;;-5.78;81.65
70952;BME280;69214;55.880;37.542;2024-01-15T05:25:04;96553.75;;;-5.93;81.55
70952;BME280;69214;55.880;37.542;2024-01-15T05:27:30;96581.97;;;-5.72;81.93
70952;BME280;69214;55.880;37.542;2024-01-15T05:29:56;96580.94;;;-5.71;82.10
70952;BME280;69214;55.880;37.542;2024-01-15T05:32:23;96577.25;;;-5.70;81.76
70952;BME280;69214;55.880;37.542;2024-01-15T05:34:49;96579.31;;;-5.65;81.99
70952;BME280;69214;55.880;37.542;2024-01-15T05:37:15;96573.59;;;-5.62;81.97
70952;BME280;69214;55.880;37.542;2024-01-15T05:39:41;96567.47;;;-5.63;81.84
70952;BME280;69214;55.880;37.542;2024-01-15T05:42:07;96569.94;;;-5.61;81.85
70952;BME280;69214;55.880;37.542;2024-01-15T05:44:33;96562.19;;;-5.56;81.98
70952;BME280;69214;55.880;37.542;2024-01-15T05:46:59;96575.25;;;-5.48;82.27
70952;BME280;69214;55.880;37.542;2024-01-15T05:49:25;96572.59;;;-5.48;82.01
70952;BME280;69214;55.880;37.542;2024-01-15T05:51:51;96582.44;;;-5.42;82.16
70952;BME280;69214;55.880;37.542;2024-01-15T05:54:18;96574.88;;;-5.38;81.84
70952;BME280;69214;55.880;37.542;2024-01-15T05:56:45;96549.50;;;-5.54;81.80
70952;BME280;69214;55.880;37.542;2024-01-15T05:59:12;96585.69;;;-5.33;82.05
70952;BME280;69214;55.880;37.542;2024-01-15T06:01:38;96578.56;;;-5.33;82.11
70952;BME280;69214;55.880;37.542;2024-01-15T06:04:04;96565.06;;;-5.31;82.14
70952;BME280;69214;55.880;37.542;2024-01-15T06:06:30;96581.41;;;-5.21;82.26
70952;BME280;69214;55.880;37.542;2024-01-15T06:08:57;96577.75;;;-5.20;82.27
70952;BME280;69214;55.880;37.542;2024-01-15T06:11:30;96579.56;;;-5.14;82.14
70952;BME280;69214;55.880;37.542;2024-01-15T06:13:56;96573.00;;;-5.11;82.40
70952;BME280;69214;55.880;37.542;2024-01-15T06:16:23;96576.28;;;-5.09;82.21
70952;BME280;69214;55.880;37.542;2024-01-15T06:18:49;96576.69;;;-5.06;81.99
70952;BME280;69214;55.880;37.542;2024-01-15T06:21:16;96580.16;;;-4.99;82.26
70952;BME280;69214;55.880;37.542;2024-01-15T06:23:42;96561.75;;;-5.07;82.05
70952;BME280;69214;55.880;37.542;2024-01-15T06:26:11;96568.91;;;-4.94;82.61
70952;BME280;69214;55.880;37.542;2024-01-15T06:28:37;96577.91;;;-4.89;82.09
70952;BME280;69214;55.880;37.542;2024-01-15T06:31:03;96573.81;;;-4.84;82.27
70952;BME280;69214;55.880;37.542;2024-01-15T06:33:31;96570.75;;;-4.81;82.35
70952;BME280;69214;55.880;37.542;2024-01-15T06:35:57;96571.16;;;-4.78;81.86
70952;BME280;69214;55.880;37.542;2024-01-15T06:38:23;96568.69;;;-4.79;82.50
70952;BME280;69214;55.880;37.542;2024-01-15T06:40:51;96568.50;;;-4.78;82.12
70952;BME280;69214;55.880;37.542;2024-01-15T06:43:17;96580.53;;;-4.69;81.78
70952;BME280;69214;55.880;37.542;2024-01-15T06:45:44;96578.09;;;-4.64;82.45
70952;BME280;69214;55.880;37.542;2024-01-15T06:48:10;96557.84;;;-4.78;81.82
70952;BME280;69214;55.880;37.542;2024-01-15T06:50:40;96576.22;;;-4.57;81.76
70952;BME280;69214;55.880;37.542;2024-01-15T06:53:06;96578.06;;;-4.50;82.31
70952;BME280;69214;55.880;37.542;2024-01-15T06:55:32;96577.66;;;-4.47;81.79
70952;BME280;69214;55.880;37.542;2024-01-15T06:57:58;96566.81;;;-4.52;82.02
70952;BME280;69214;55.880;37.542;2024-01-15T07:00:25;96578.88;;;-4.43;81.91
70952;BME280;69214;55.880;37.542;2024-01-15T07:02:51;96581.09;;;-4.34;81.64
70952;BME280;69214;55.880;37.542;2024-01-15T07:05:17;96542.47;;;-4.56;82.20
70952;BME280;69214;55.880;37.542;2024-01-15T07:07:43;96581.28;;;-4.29;82.10
70952;BME280;69214;55.880;37.542;2024-01-15T07:10:09;96582.50;;;-4.25;81.51
70952;BME280;69214;55.880;37.542;2024-01-15T07:12:35;96582.06;;;-4.21;81.73
70952;BME280;69214;55.880;37.542;2024-01-15T07:15:01;96566.31;;;-4.23;81.57
70952;BME280;69214;55.880;37.542;2024-01-15T07:17:29;96579.19;;;-4.13;81.70
70952;BME280;69214;55.880;37.542;2024-01-15T07:19:54;96573.44;;;-4.10;81.85
70952;BME280;69214;55.880;37.542;2024-01-15T07:22:20;96574.66;;;-4.06;81.83
70952;BME280;69214;55.880;37.542;2024-01-15T07:24:46;96572.16;;;-4.01;82.14
70952;BME280;69214;55.880;37.542;2024-01-15T07:27:12;96580.94;;;-3.94;81.89
70952;BME280;69214;55.880;37.542;2024-01-15T07:29:38;96578.47;;;-3.89;81.95
70952;BME280;69214;55.880;37.542;2024-01-15T07:32:04;96561.66;;;-3.89;82.10
70952;BME280;69214;55.880;37.542;2024-01-15T07:34:30;96575.34;;;-3.79;81.82
70952;BME280;69214;55.880;37.542;2024-01-15T07:36:57;96580.25;;;-3.76;81.71
70952;BME280;69214;55.880;37.542;2024-01-15T07:39:23;96560.78;;;-3.77;81.76
70952;BME280;69214;55.880;37.542;2024-01-15T07:41:52;96571.78;;;-3.67;81.85
70952;BME280;69214;55.880;37.542;2024-01-15T07:44:18;96563.81;;;-3.67;81.86
70952;BME280;69214;55.880;37.542;2024-01-15T07:46:45;96577.69;;;-3.58;81.99
70952;BME280;69214;55.880;37.542;2024-01-15T07:49:11;96569.88;;;-3.53;81.81
70952;BME280;69214;55.880;37.542;2024-01-15T07:51:37;96571.09;;;-3.49;81.48
70952;BME280;69214;55.880;37.542;2024-01-15T07:54:03;96567.38;;;-3.48;81.69
70952;BME280;69214;55.880;37.542;2024-01-15T07:56:29;96573.88;;;-3.37;81.68
70952;BME280;69214;55.880;37.542;2024-01-15T07:58:56;96574.03;;;-3.32;81.99
70952;BME280;69214;55.880;37.542;2024-01-15T08:01:22;96577.47;;;-3.25;82.08
70952;BME280;69214;55.880;37.542;2024-01-15T08:03:47;96570.25;;;-3.18;81.66
70952;BME280;69214;55.880;37.542;2024-01-15T08:06:14;96570.03;;;-3.16;81.85
70952;BME280;69214;55.880;37.542;2024-01-15T08:08:40;96574.66;;;-3.05;81.84
70952;BME280;69214;55.880;37.542;2024-01-15T08:11:05;96560.97;;;-3.09;82.08
70952;BME280;69214;55.880;37.542;2024-01-15T08:13:31;96567.00;;;-2.95;81.71
70952;BME280;69214;55.880;37.542;2024-01-15T08:15:57;96570.81;;;-2.84;82.00
70952;BME280;69214;55.880;37.542;2024-01-15T08:18:24;96570.31;;;-2.75;82.11
70952;BME280;69214;55.880;37.542;2024-01-15T08:20:51;96574.50;;;-2.61;81.60
70952;BME280;69214;55.880;37.542;2024-01-15T08:23:17;96564.56;;;-2.53;82.29
70952;BME280;69214;55.880;37.542;2024-01-15T08:25:43;96570.53;;;-2.33;82.02
70952;BME280;69214;55.880;37.542;2024-01-15T08:28:09;96569.19;;;-2.24;81.91
70952;BME280;69214;55.880;37.542;2024-01-15T08:30:35;96562.44;;;-2.08;81.97
70952;BME280;69214;55.880;37.542;2024-01-15T08:33:01;96566.22;;;-1.98;82.11
70952;BME280;69214;55.880;37.542;2024-01-15T08:35:27;96550.31;;;-1.92;82.49
70952;BME280;69214;55.880;37.542;2024-01-15T08:37:53;96573.91;;;-1.71;81.79
70952;BME280;69214;55.880;37.542;2024-01-15T08:40:19;96572.53;;;-1.62;82.62
70952;BME280;69214;55.880;37.542;2024-01-15T08:42:45;96566.88;;;-1.54;81.96
70952;BME280;69214;55.880;37.542;2024-01-15T08:45:11;96583.44;;;-1.45;81.54
70952;BME280;69214;55.880;37.542;2024-01-15T08:47:38;96575.78;;;-1.42;82.11
70952;BME280;69214;55.880;37.542;2024-01-15T08:50:04;96561.81;;;-1.44;81.46
70952;BME280;69214;55.880;37.542;2024-01-15T08:52:30;96576.25;;;-1.33;82.09
70952;BME280;69214;55.880;37.542;2024-01-15T08:54:57;96555.31;;;-1.36;82.07
70952;BME280;69214;55.880;37.542;2024-01-15T08:57:23;96568.16;;;-1.26;81.73
70952;BME280;69214;55.880;37.542;2024-01-15T08:59:49;96558.34;;;-1.33;81.27
70952;BME280;69214;55.880;37.542;2024-01-15T09:02:15;96568.84;;;-1.19;82.17
70952;BME280;69214;55.880;37.542;2024-01-15T09:04:41;96551.38;;;-1.34;81.68
70952;BME280;69214;55.880;37.542;2024-01-15T09:07:10;96571.91;;;-1.16;81.29
70952;BME280;69214;55.880;37.542;2024-01-15T09:09:35;96578.06;;;-1.15;81.66
70952;BME280;69214;55.880;37.542;2024-01-15T09:12:02;96563.75;;;-1.21;81.76
70952;BME280;69214;55.880;37.542;2024-01-15T09:14:28;96550.81;;;-1.24;82.07
70952;BME280;69214;55.880;37.542;2024-01-15T09:16:54;96564.09;;;-1.17;81.75
70952;BME280;69214;55.880;37.542;2024-01-15T09:19:21;96563.06;;;-1.16;81.81
70952;BME280;69214;55.880;37.542;2024-01-15T09:21:47;96565.50;;;-1.15;82.03
70952;BME280;69214;55.880;37.542;2024-01-15T09:24:13;96562.59;;;-1.13;81.56
70952;BME280;69214;55.880;37.542;2024-01-15T09:26:39;96561.78;;;-1.14;82.41
70952;BME280;69214;55.880;37.542;2024-01-15T09:29:05;96537.81;;;-1.20;81.79
70952;BME280;69214;55.880;37.542;2024-01-15T09:31:31;96551.31;;;-1.15;81.98
70952;BME280;69214;55.880;37.542;2024-01-15T09:33:57;96553.16;;;-1.16;82.08
70952;BME280;69214;55.880;37.542;2024-01-15T09:36:25;96531.16;;;-1.29;82.63
70952;BME280;69214;55.880;37.542;2024-01-15T09:38:52;96563.19;;;-1.11;82.24
70952;BME280;69214;55.880;37.542;2024-01-15T09:41:18;96564.47;;;-1.14;82.84
70952;BME280;69214;55.880;37.542;2024-01-15T09:43:44;96564.22;;;-1.12;82.70
70952;BME280;69214;55.880;37.542;2024-01-15T09:46:11;96555.84;;;-1.16;82.48
70952;BME280;69214;55.880;37.542;2024-01-15T09:48:37;96559.09;;;-1.14;82.84
70952;BME280;69214;55.880;37.542;2024-01-15T09:51:05;96552.81;;;-1.19;82.32
70952;BME280;69214;55.880;37.542;2024-01-15T09:53:33;96546.53;;;-1.13;83.10
70952;BME280;69214;55.880;37.542;2024-01-15T09:55:59;96558.91;;;-1.01;82.76
70952;BME280;69214;55.880;37.542;2024-01-15T09:58:25;96567.06;;;-0.95;81.87
70952;BME280;69214;55.880;37.542;2024-01-15T10:00:51;96568.31;;;-0.98;82.83
70952;BME280;69214;55.880;37.542;2024-01-15T10:03:18;96568.78;;;-1.01;82.57
70952;BME280;69214;55.880;37.542;2024-01-15T10:05:44;96570.53;;;-0.95;83.00
70952;BME280;69214;55.880;37.542;2024-01-15T10:08:10;96553.19;;;-1.04;81.85
70952;BME280;69214;55.880;37.542;2024-01-15T10:10:37;96575.31;;;-0.97;82.73
70952;BME280;69214;55.880;37.542;2024-01-15T10:13:05;96576.13;;;-0.96;82.08
70952;BME280;69214;55.880;37.542;2024-01-15T10:15:34;96568.19;;;-1.03;82.52
70952;BME280;69214;55.880;37.542;2024-01-15T10:18:02;96563.78;;;-0.98;81.81
70952;BME280;69214;55.880;37.542;2024-01-15T10:20:31;96559.81;;;-1.07;82.48
70952;BME280;69214;55.880;37.542;2024-01-15T10:22:58;96576.34;;;-0.98;81.97
70952;BME280;69214;55.880;37.542;2024-01-15T10:25:24;96563.78;;;-0.98;82.33
70952;BME280;69214;55.880;37.542;2024-01-15T10:28:09;96568.31;;;-0.98;82.26
70952;BME280;69214;55.880;37.542;2024-01-15T10:30:35;96537.94;;;-1.15;82.07
70952;BME280;69214;55.880;37.542;2024-01-15T10:33:03;96552.72;;;-1.01;82.02
70952;BME280;69214;55.880;37.542;2024-01-15T10:35:33;96567.75;;;-1.00;82.01
70952;BME280;69214;55.880;37.542;2024-01-15T10:38:00;96563.56;;;-0.96;82.04
70952;BME280;69214;55.880;37.542;2024-01-15T10:40:27;96567.06;;;-0.95;82.86
70952;BME280;69214;55.880;37.542;2024-01-15T10:42:53;96547.47;;;-1.08;81.97
70952;BME280;69214;55.880;37.542;2024-01-15T10:45:21;96561.81;;;-1.02;82.69
70952;BME280;69214;55.880;37.542;2024-01-15T10:47:47;96573.22;;;-0.95;82.17
70952;BME280;69214;55.880;37.542;2024-01-15T10:50:14;96559.72;;;-1.00;82.57
70952;BME280;69214;55.880;37.542;2024-01-15T10:52:40;96573.69;;;-0.98;82.74
70952;BME280;69214;55.880;37.542;2024-01-15T10:55:08;96561.44;;;-1.06;82.42
70952;BME280;69214;55.880;37.542;2024-01-15T10:57:37;96549.69;;;-1.05;82.94
70952;BME280;69214;55.880;37.542;2024-01-15T11:00:04;96570.19;;;-0.99;83.01
70952;BME280;69214;55.880;37.542;2024-01-15T11:02:35;96560.63;;;-1.06;82.34
70952;BME280;69214;55.880;37.542;2024-01-15T11:05:02;96554.72;;;-0.96;82.91
70952;BME280;69214;55.880;37.542;2024-01-15T11:07:30;96554.50;;;-0.95;82.43
70952;BME280;69214;55.880;37.542;2024-01-15T11:09:56;96530.25;;;-1.12;82.63
70952;BME280;69214;55.880;37.542;2024-01-15T11:12:24;96565.88;;;-1.00;82.96
70952;BME280;69214;55.880;37.542;2024-01-15T11:14:50;96556.81;;;-0.99;82.58
70952;BME280;69214;55.880;37.542;2024-01-15T11:17:17;96558.22;;;-0.96;83.11
70952;BME280;69214;55.880;37.542;2024-01-15T11:19:46;96562.75;;;-0.96;82.28
70952;BME280;69214;55.880;37.542;2024-01-15T11:25:03;96555.19;;;-1.00;82.40
70952;BME280;69214;55.880;37.542;2024-01-15T11:27:42;96560.75;;;-1.01;83.07
70952;BME280;69214;55.880;37.542;2024-01-15T11:30:09;96559.59;;;-1.05;82.88
70952;BME280;69214;55.880;37.542;2024-01-15T11:32:39;96551.44;;;-1.10;83.30
70952;BME280;69214;55.880;37.542;2024-01-15T11:35:12;96561.44;;;-1.06;83.17
70952;BME280;69214;55.880;37.542;2024-01-15T11:40:19;96547.59;;;-1.14;83.14
70952;BME280;69214;55.880;37.542;2024-01-15T11:42:46;96552.25;;;-1.10;83.18
70952;BME280;69214;55.880;37.542;2024-01-15T11:45:15;96557.00;;;-1.12;82.89
70952;BME280;69214;55.880;37.542;2024-01-15T11:48:10;96552.47;;;-1.11;83.33
70952;BME280;69214;55.880;37.542;2024-01-15T11:50:48;96530.47;;;-1.25;83.00
70952;BME280;69214;55.880;37.542;2024-01-15T11:56:02;96550.84;;;-1.12;83.51
70952;BME280;69214;55.880;37.542;2024-01-15T11:58:29;96506.25;;;-1.42;82.52
70952;BME280;69214;55.880;37.542;2024-01-15T12:00:55;96545.84;;;-1.20;82.73
70952;BME280;69214;55.880;37.542;2024-01-15T12:03:24;96550.63;;;-1.11;83.32
70952;BME280;69214;55.880;37.542;2024-01-15T12:05:54;96556.19;;;-1.12;82.95
70952;BME280;69214;55.880;37.542;2024-01-15T12:08:23;96561.56;;;-1.12;82.90
70952;BME280;69214;55.880;37.542;2024-01-15T12:10:49;96537.22;;;-1.22;82.72
70952;BME280;69214;55.880;37.542;2024-01-15T12:13:16;96553.97;;;-1.15;82.88
70952;BME280;69214;55.880;37.542;2024-01-15T12:15:44;96536.03;;;-1.26;83.51
70952;BME280;69214;55.880;37.542;2024-01-15T12:18:13;96539.22;;;-1.18;83.32
70952;BME280;69214;55.880;37.542;2024-01-15T12:20:40;96549.69;;;-1.16;82.83
70952;BME280;69214;55.880;37.542;2024-01-15T12:23:08;96541.97;;;-1.24;83.51
70952;BME280;69214;55.880;37.542;2024-01-15T12:25:36;96538.25;;;-1.23;83.49
70952;BME280;69214;55.880;37.542;2024-01-15T12:28:03;96551.75;;;-1.18;83.11
70952;BME280;69214;55.880;37.542;2024-01-15T12:30:30;96555.94;;;-1.22;83.96
70952;BME280;69214;55.880;37.542;2024-01-15T12:33:07;96553.28;;;-1.22;83.00
70952;BME280;69214;55.880;37.542;2024-01-15T12:35:34;96551.63;;;-1.23;83.26
70952;BME280;69214;55.880;37.542;2024-01-15T12:38:01;96553.72;;;-1.25;82.87
70952;BME280;69214;55.880;37.542;2024-01-15T12:40:31;96544.75;;;-1.31;82.74
70952;BME280;69214;55.880;37.542;2024-01-15T12:42:58;96547.31;;;-1.36;83.37
70952;BME280;69214;55.880;37.542;2024-01-15T12:45:24;96559.75;;;-1.30;82.92
70952;BME280;69214;55.880;37.542;2024-01-15T12:47:50;96552.06;;;-1.38;82.96
70952;BME280;69214;55.880;37.542;2024-01-15T12:50:17;96553.25;;;-1.34;82.97
70952;BME280;69214;55.880;37.542;2024-01-15T12:52:43;96555.56;;;-1.38;82.74
70952;BME280;69214;55.880;37.542;2024-01-15T12:55:09;96570.19;;;-1.40;82.62